Time;durP1;ratioP1;P1;durP2;ratioP2;P2;SDS_P1;SDS_P2;PMS_P1;PMS_P2;Temp;Humidity;BMP_temperature;BMP_pressure;BME280_temperature;BME280_humidity;BME280_pressure;Samples;Min_cycle;Max_cycle;Signal;HPM_P1;HPM_P2
2020/12/21 00:01:19;;;;;;;132.10;51.40;;;;;;;-1.81;87.39;101366.14;1739512;82;21159;-75
2020/12/21 00:03:45;;;;;;;130.35;52.20;;;;;;;-1.85;87.39;101366.73;1713013;81;21132;-75
2020/12/21 00:06:12;;;;;;;137.88;49.55;;;;;;;-1.86;87.39;101362.41;1726320;82;21155;-76
2020/12/21 00:08:38;;;;;;;137.72;50.40;;;;;;;-1.85;87.42;101371.95;1709955;83;21211;-75
2020/12/21 00:11:05;;;;;;;123.78;49.40;;;;;;;-1.84;87.42;101372.81;1719757;82;21154;-75
2020/12/21 00:13:31;;;;;;;104.15;44.50;;;;;;;-1.87;87.45;101367.72;1731973;82;21211;-76
2020/12/21 00:15:58;;;;;;;115.00;47.58;;;;;;;-1.88;87.48;101373.86;1739352;82;21176;-76
2020/12/21 00:18:24;;;;;;;116.35;47.85;;;;;;;-1.95;87.50;101374.59;1739089;82;21647;-76
2020/12/21 00:20:50;;;;;;;131.25;50.60;;;;;;;-1.98;87.50;101373.42;1738952;82;21761;-76
2020/12/21 00:23:16;;;;;;;125.75;52.83;;;;;;;-2.01;87.49;101376.17;1717935;82;21186;-75
2020/12/21 00:25:43;;;;;;;158.55;56.98;;;;;;;-2.07;87.48;101369.42;1709358;82;21173;-76
2020/12/21 00:28:09;;;;;;;137.12;54.60;;;;;;;-2.09;87.48;101369.96;1708970;83;21414;-76
2020/12/21 00:30:35;;;;;;;130.95;51.08;;;;;;;-2.09;87.49;101367.80;1709811;83;21237;-75
2020/12/21 00:33:02;;;;;;;100.72;39.90;;;;;;;-2.11;87.49;101370.95;1709972;83;22213;-76
2020/12/21 00:35:28;;;;;;;105.05;43.08;;;;;;;-2.12;87.46;101365.33;1709676;83;21514;-75
2020/12/21 00:37:54;;;;;;;67.80;32.28;;;;;;;-2.11;87.48;101372.25;1709918;83;21148;-75
2020/12/21 00:40:20;;;;;;;74.50;33.88;;;;;;;-2.05;87.45;101371.98;1709667;82;21169;-75
2020/12/21 00:42:47;;;;;;;87.70;37.10;;;;;;;-1.93;87.45;101378.42;1707233;82;21184;-76
2020/12/21 00:45:13;;;;;;;56.05;29.52;;;;;;;-1.85;87.39;101378.95;1704178;82;21285;-76
2020/12/21 00:47:43;;;;;;;71.35;34.48;;;;;;;-1.79;87.37;101371.68;1716382;82;21220;-76
2020/12/21 00:50:08;;;;;;;64.17;31.45;;;;;;;-1.70;87.37;101371.29;1701011;84;21664;-76
2020/12/21 00:52:34;;;;;;;62.15;31.05;;;;;;;-1.65;87.38;101366.69;1725548;82;21216;-76
2020/12/21 00:55:00;;;;;;;63.17;32.40;;;;;;;-1.60;87.36;101372.57;1730489;81;21132;-76
2020/12/21 00:57:34;;;;;;;69.75;33.15;;;;;;;-1.53;87.35;101373.98;1724691;82;21243;-76
2020/12/21 01:00:01;;;;;;;63.08;30.55;;;;;;;-1.43;87.36;101377.03;1701256;84;21171;-77
2020/12/21 01:02:27;;;;;;;62.38;31.35;;;;;;;-1.34;87.34;101373.16;1700607;84;21193;-76
2020/12/21 01:04:53;;;;;;;72.05;34.60;;;;;;;-1.24;87.34;101375.28;1727396;82;21132;-76
2020/12/21 01:07:19;;;;;;;89.35;37.53;;;;;;;-1.17;87.36;101371.91;1730277;82;21228;-76
2020/12/21 01:09:46;;;;;;;91.72;40.92;;;;;;;-1.07;87.36;101377.95;1730644;82;22193;-75
2020/12/21 01:12:16;;;;;;;64.67;32.63;;;;;;;-0.99;87.36;101371.51;1730465;82;21254;-76
2020/12/21 01:14:42;;;;;;;65.70;34.25;;;;;;;-0.94;87.38;101364.27;1730515;82;21176;-76
2020/12/21 01:17:09;;;;;;;73.00;35.95;;;;;;;-0.87;87.38;101363.91;1730472;82;21589;-76
2020/12/21 01:19:35;;;;;;;74.27;34.35;;;;;;;-0.75;87.39;101369.88;1729855;82;21708;-77
2020/12/21 01:22:02;;;;;;;71.77;34.03;;;;;;;-0.67;87.38;101369.02;1730560;81;21927;-76
2020/12/21 01:24:28;;;;;;;60.35;31.27;;;;;;;-0.62;87.40;101367.03;1730247;82;21152;-76
2020/12/21 01:26:55;;;;;;;51.02;26.80;;;;;;;-0.54;87.40;101364.89;1729575;82;21211;-76
2020/12/21 01:29:21;;;;;;;45.88;25.37;;;;;;;-0.44;87.41;101369.66;1730486;82;21132;-76
2020/12/21 01:31:47;;;;;;;48.52;26.48;;;;;;;-0.35;87.40;101361.37;1720740;82;21236;-76
2020/12/21 01:34:15;;;;;;;57.95;30.32;;;;;;;-0.27;87.41;101369.67;1701194;84;22050;-76
2020/12/21 01:36:42;;;;;;;60.48;30.77;;;;;;;-0.23;87.44;101359.42;1701860;84;21199;-77
2020/12/21 01:39:08;;;;;;;56.63;28.20;;;;;;;-0.21;87.44;101361.03;1701329;82;21167;-77
2020/12/21 01:41:35;;;;;;;58.20;29.92;;;;;;;-0.16;87.45;101366.05;1703649;83;21617;-77
2020/12/21 01:44:01;;;;;;;62.38;32.25;;;;;;;-0.15;87.48;101358.58;1707587;83;21211;-77
2020/12/21 01:46:28;;;;;;;65.55;33.88;;;;;;;-0.15;87.47;101354.64;1707505;82;21206;-77
2020/12/21 01:48:54;;;;;;;54.20;28.85;;;;;;;-0.14;87.47;101353.73;1706959;82;21270;-77
2020/12/21 01:51:24;;;;;;;57.15;28.12;;;;;;;-0.11;87.50;101347.02;1706685;84;21684;-77
2020/12/21 01:53:52;;;;;;;57.10;29.50;;;;;;;-0.06;87.51;101351.53;1707266;84;21219;-77
2020/12/21 01:56:19;;;;;;;53.50;26.30;;;;;;;0.00;87.49;101347.31;1707555;82;21376;-77
2020/12/21 01:58:45;;;;;;;44.83;25.30;;;;;;;0.05;87.49;101351.83;1679419;82;21597;-76
2020/12/21 02:01:13;;;;;;;42.20;23.25;;;;;;;0.10;87.49;101347.67;1707423;82;21214;-76
2020/12/21 02:03:40;;;;;;;47.58;24.25;;;;;;;0.16;87.49;101344.26;1707149;84;21686;-76
2020/12/21 02:06:07;;;;;;;42.83;23.62;;;;;;;0.21;87.48;101351.41;1707355;83;21963;-77
2020/12/21 02:08:33;;;;;;;44.73;24.65;;;;;;;0.28;87.49;101339.66;1707348;84;21139;-76
2020/12/21 02:10:59;;;;;;;41.85;23.62;;;;;;;0.33;87.48;101340.27;1707538;84;21203;-76
2020/12/21 02:13:25;;;;;;;46.98;25.75;;;;;;;0.40;87.50;101337.70;1725167;82;21170;-76
2020/12/21 02:15:53;;;;;;;42.45;23.52;;;;;;;0.43;87.49;101338.84;1736162;82;21671;-76
2020/12/21 02:18:19;;;;;;;43.68;24.10;;;;;;;0.45;87.48;101338.78;1736720;82;21604;-76
2020/12/21 02:20:45;;;;;;;43.00;23.22;;;;;;;0.46;87.48;101334.74;1731015;82;21179;-76
2020/12/21 02:23:12;;;;;;;42.25;22.07;;;;;;;0.47;87.52;101336.91;1707740;82;21225;-76
2020/12/21 02:25:38;;;;;;;39.00;21.15;;;;;;;0.47;87.49;101337.76;1707311;84;21138;-76
2020/12/21 02:28:04;;;;;;;42.48;22.15;;;;;;;0.49;87.48;101338.51;1707529;84;21130;-77
2020/12/21 02:30:31;;;;;;;36.48;20.82;;;;;;;0.53;87.46;101339.69;1707445;84;21187;-77
2020/12/21 02:32:57;;;;;;;42.00;22.85;;;;;;;0.55;87.47;101343.06;1709253;82;21131;-76
2020/12/21 02:35:23;;;;;;;44.85;24.02;;;;;;;0.57;87.45;101347.74;1707498;83;21201;-76
2020/12/21 02:37:50;;;;;;;43.45;23.02;;;;;;;0.59;87.46;101349.84;1707201;82;21170;-76
2020/12/21 02:40:16;;;;;;;45.65;23.95;;;;;;;0.59;87.43;101354.63;1707373;84;21568;-76
2020/12/21 02:42:42;;;;;;;54.03;27.90;;;;;;;0.58;87.43;101346.83;1703498;83;21216;-76
2020/12/21 02:45:09;;;;;;;52.83;28.45;;;;;;;0.58;87.44;101349.45;1722468;83;21163;-76
2020/12/21 02:47:36;;;;;;;54.08;25.57;;;;;;;0.55;87.43;101347.00;1694988;84;22134;-76
2020/12/21 02:50:03;;;;;;;51.70;24.77;;;;;;;0.54;87.46;101349.23;1722560;83;21149;-76
2020/12/21 02:52:30;;;;;;;49.53;25.00;;;;;;;0.48;87.45;101344.70;1695138;84;21562;-76
2020/12/21 02:54:57;;;;;;;47.83;23.25;;;;;;;0.45;87.44;101342.26;1722436;83;21159;-76
2020/12/21 02:57:24;;;;;;;39.38;22.30;;;;;;;0.45;87.42;101350.12;1695101;84;21617;-76
2020/12/21 02:59:50;;;;;;;49.42;24.82;;;;;;;0.48;87.42;101347.80;1722177;83;21612;-76
2020/12/21 03:02:17;;;;;;;52.45;26.25;;;;;;;0.48;87.42;101342.09;1694860;83;21228;-76
2020/12/21 03:04:43;;;;;;;64.55;31.52;;;;;;;0.49;87.40;101345.56;1716369;83;21163;-76
2020/12/21 03:07:09;;;;;;;52.00;27.70;;;;;;;0.53;87.42;101347.06;1723991;82;21169;-76
2020/12/21 03:09:35;;;;;;;53.78;27.13;;;;;;;0.56;87.39;101347.39;1724060;83;21592;-76
2020/12/21 03:12:02;;;;;;;49.85;25.77;;;;;;;0.56;87.37;101340.83;1723406;83;21340;-76
2020/12/21 03:14:30;;;;;;;46.10;25.05;;;;;;;0.56;87.37;101345.61;1724130;83;21141;-77
2020/12/21 03:16:57;;;;;;;49.05;24.95;;;;;;;0.52;87.36;101341.45;1723777;82;21156;-77
2020/12/21 03:19:23;;;;;;;39.73;21.85;;;;;;;0.51;87.34;101343.69;1723825;82;21228;-77
2020/12/21 03:21:50;;;;;;;43.13;23.35;;;;;;;0.50;87.32;101340.67;1723879;82;21563;-77
2020/12/21 03:24:16;;;;;;;47.35;23.20;;;;;;;0.52;87.36;101336.67;1724063;83;21210;-78
2020/12/21 03:26:42;;;;;;;43.85;22.73;;;;;;;0.56;87.34;101340.83;1723998;83;21188;-78
2020/12/21 03:29:09;;;;;;;42.70;25.25;;;;;;;0.58;87.33;101338.95;1724029;82;21137;-78
2020/12/21 03:31:35;;;;;;;50.30;25.92;;;;;;;0.57;87.30;101335.48;1723990;83;21169;-77
2020/12/21 03:34:02;;;;;;;48.45;24.63;;;;;;;0.61;87.30;101338.78;1723899;82;21181;-77
2020/12/21 03:36:28;;;;;;;45.58;25.97;;;;;;;0.64;87.29;101334.21;1708950;83;21581;-77
2020/12/21 03:38:54;;;;;;;42.98;24.27;;;;;;;0.62;87.31;101328.21;1694307;84;21185;-77
2020/12/21 03:41:22;;;;;;;43.52;24.57;;;;;;;0.61;87.29;101327.82;1694990;83;21199;-77
2020/12/21 03:43:48;;;;;;;42.35;21.52;;;;;;;0.63;87.30;101334.31;1730722;82;21147;-77
2020/12/21 03:46:14;;;;;;;37.28;20.90;;;;;;;0.62;87.29;101333.92;1698674;84;21155;-77
2020/12/21 03:48:40;;;;;;;40.08;21.37;;;;;;;0.62;87.27;101336.09;1698517;84;22119;-77
2020/12/21 03:51:07;;;;;;;38.63;19.95;;;;;;;0.65;87.24;101337.69;1698461;84;21646;-77
2020/12/21 03:53:33;;;;;;;39.15;20.60;;;;;;;0.67;87.22;101335.84;1698576;84;21179;-77
2020/12/21 03:55:59;;;;;;;42.13;22.02;;;;;;;0.69;87.23;101331.34;1698402;84;21165;-77
2020/12/21 03:58:26;;;;;;;39.05;22.58;;;;;;;0.73;87.22;101332.88;1698595;83;21172;-77
2020/12/21 04:00:52;;;;;;;38.42;22.58;;;;;;;0.76;87.21;101328.30;1700305;83;22142;-76
2020/12/21 04:03:18;;;;;;;40.15;22.95;;;;;;;0.78;87.22;101330.83;1698174;83;21256;-77
2020/12/21 04:05:45;;;;;;;45.70;23.55;;;;;;;0.78;87.21;101323.80;1698485;84;21164;-76
2020/12/21 04:08:11;;;;;;;43.65;21.93;;;;;;;0.81;87.21;101328.05;1698420;84;21219;-76
2020/12/21 04:10:38;;;;;;;37.60;20.75;;;;;;;0.83;87.20;101339.30;1700647;83;21168;-76
2020/12/21 04:13:04;;;;;;;39.88;19.73;;;;;;;0.85;87.17;101334.80;1724057;83;22656;-76
2020/12/21 04:15:31;;;;;;;34.88;19.32;;;;;;;0.87;87.20;101343.00;1727488;83;21196;-76
2020/12/21 04:17:57;;;;;;;38.02;19.65;;;;;;;0.89;87.16;101339.80;1727593;83;21188;-76
2020/12/21 04:20:23;;;;;;;41.10;20.82;;;;;;;0.92;87.14;101338.32;1727501;83;21212;-76
2020/12/21 04:22:49;;;;;;;38.90;20.35;;;;;;;0.96;87.15;101345.56;1727624;83;21549;-77
2020/12/21 04:25:16;;;;;;;40.25;22.65;;;;;;;0.97;87.17;101342.02;1727641;82;21203;-77
2020/12/21 04:27:42;;;;;;;34.50;20.40;;;;;;;0.99;87.15;101342.76;1727623;82;21215;-77
2020/12/21 04:30:08;;;;;;;36.65;21.30;;;;;;;1.00;87.17;101349.71;1727498;81;21148;-77
2020/12/21 04:32:35;;;;;;;38.60;22.20;;;;;;;1.00;87.15;101351.03;1727522;82;21156;-77
2020/12/21 04:35:01;;;;;;;36.88;20.52;;;;;;;1.01;87.18;101355.36;1727305;83;21140;-77
2020/12/21 04:37:27;;;;;;;41.80;21.73;;;;;;;1.04;87.16;101361.75;1727625;83;22084;-77
2020/12/21 04:39:54;;;;;;;35.23;19.92;;;;;;;1.04;87.15;101363.06;1727453;82;21574;-77
2020/12/21 04:42:24;;;;;;;38.88;20.30;;;;;;;1.06;87.16;101362.49;1722642;81;21176;-77
2020/12/21 04:44:48;;;;;;;33.00;19.60;;;;;;;1.07;87.14;101351.06;1688602;84;21132;-77
2020/12/21 04:47:14;;;;;;;35.40;18.55;;;;;;;1.10;87.14;101356.14;1687185;83;21608;-77
2020/12/21 04:49:41;;;;;;;37.88;19.25;;;;;;;1.14;87.15;101351.56;1717555;83;21267;-77
2020/12/21 04:52:07;;;;;;;33.65;19.57;;;;;;;1.17;87.14;101360.12;1717146;83;21617;-77
2020/12/21 04:54:34;;;;;;;33.35;19.30;;;;;;;1.21;87.15;101359.02;1656828;83;21189;-77
2020/12/21 04:57:00;;;;;;;34.25;20.60;;;;;;;1.23;87.13;101351.87;1717479;83;22014;-77
2020/12/21 04:59:26;;;;;;;43.38;22.70;;;;;;;1.24;87.12;101349.64;1717623;83;21160;-77
2020/12/21 05:01:55;;;;;;;41.77;21.25;;;;;;;1.26;87.12;101353.05;1695567;83;21218;-77
2020/12/21 05:04:23;;;;;;;42.10;22.65;;;;;;;1.25;87.10;101351.34;1688571;85;21204;-77
2020/12/21 05:06:53;;;;;;;32.23;20.17;;;;;;;1.25;87.10;101347.41;1688757;84;21140;-77
2020/12/21 05:09:25;;;;;;;41.05;20.08;;;;;;;1.25;87.10;101348.72;1688702;84;21157;-77
2020/12/21 05:11:56;;;;;;;37.95;18.42;;;;;;;1.25;87.08;101352.66;1688653;85;21200;-77
2020/12/21 05:14:35;;;;;;;32.08;18.17;;;;;;;1.26;87.07;101357.45;1688348;83;22065;-78
2020/12/21 05:17:16;;;;;;;29.50;18.15;;;;;;;1.27;87.08;101357.80;1688622;83;21171;-78
2020/12/21 05:19:43;;;;;;;30.88;18.52;;;;;;;1.31;87.06;101358.87;1688718;84;21662;-78
2020/12/21 05:22:15;;;;;;;39.90;20.82;;;;;;;1.34;87.05;101360.00;1688296;85;21153;-77
2020/12/21 05:24:43;;;;;;;42.65;21.48;;;;;;;1.38;87.06;101361.52;1688673;85;21665;-77
2020/12/21 05:27:16;;;;;;;38.90;21.87;;;;;;;1.40;87.07;101359.67;1688134;84;21172;-77
2020/12/21 05:29:53;;;;;;;41.48;22.27;;;;;;;1.42;87.06;101352.53;1688358;83;21220;-77
2020/12/21 05:32:19;;;;;;;40.92;19.95;;;;;;;1.42;87.05;101356.48;1688299;84;21137;-77
2020/12/21 05:34:46;;;;;;;37.90;21.75;;;;;;;1.43;87.07;101366.53;1688749;84;21577;-77
2020/12/21 05:37:18;;;;;;;38.73;21.27;;;;;;;1.42;87.07;101357.79;1701630;83;22025;-77
2020/12/21 05:39:52;;;;;;;36.65;20.57;;;;;;;1.40;87.08;101360.98;1717610;83;23016;-77
2020/12/21 05:42:20;;;;;;;36.20;19.62;;;;;;;1.40;87.07;101362.30;1717955;83;21197;-77
2020/12/21 05:45:00;;;;;;;35.03;20.12;;;;;;;1.40;87.06;101355.73;1724010;82;21137;-77
2020/12/21 05:47:26;;;;;;;34.88;18.95;;;;;;;1.41;87.05;101349.52;1714623;82;21176;-77
2020/12/21 05:49:57;;;;;;;36.08;18.15;;;;;;;1.44;87.05;101357.22;1694991;83;21172;-77
2020/12/21 05:52:35;;;;;;;34.58;19.32;;;;;;;1.46;87.06;101361.94;1695052;84;21212;-77
2020/12/21 05:55:10;;;;;;;30.82;18.80;;;;;;;1.50;87.03;101359.52;1694820;83;21641;-77
2020/12/21 05:57:39;;;;;;;34.95;19.85;;;;;;;1.54;87.03;101358.02;1694922;84;21140;-77
2020/12/21 06:00:08;;;;;;;36.53;21.75;;;;;;;1.55;87.03;101368.92;1696571;83;21165;-77
2020/12/21 06:02:35;;;;;;;43.13;22.73;;;;;;;1.56;87.04;101364.02;1723219;82;21120;-77
2020/12/21 06:05:06;;;;;;;41.40;21.27;;;;;;;1.56;87.05;101364.88;1724042;82;21259;-77
2020/12/21 06:07:33;;;;;;;35.13;21.60;;;;;;;1.55;87.07;101361.04;1723759;81;21176;-77
2020/12/21 06:10:05;;;;;;;42.93;21.70;;;;;;;1.55;87.06;101364.48;1723919;82;21171;-77
2020/12/21 06:12:37;;;;;;;35.75;20.17;;;;;;;1.56;87.05;101365.34;1724011;82;21183;-77
2020/12/21 06:15:07;;;;;;;34.83;17.87;;;;;;;1.56;87.05;101358.30;1720287;82;21152;-77
2020/12/21 06:17:36;;;;;;;33.73;18.17;;;;;;;1.57;87.05;101355.21;1705365;83;21224;-77
2020/12/21 06:20:06;;;;;;;36.68;19.98;;;;;;;1.59;87.04;101355.49;1724099;83;21196;-77
2020/12/21 06:22:32;;;;;;;49.00;25.92;;;;;;;1.62;87.04;101365.83;1723649;81;21208;-77
2020/12/21 06:24:58;;;;;;;43.38;25.85;;;;;;;1.64;87.03;101364.44;1724133;83;21120;-77
2020/12/21 06:27:25;;;;;;;41.83;26.10;;;;;;;1.66;87.04;101369.97;1721798;82;21121;-77
2020/12/21 06:29:59;;;;;;;36.85;22.05;;;;;;;1.65;87.05;101364.82;1699246;81;21262;-77
2020/12/21 06:32:33;;;;;;;46.13;26.87;;;;;;;1.66;87.08;101362.55;1748609;81;21172;-77
2020/12/21 06:35:00;;;;;;;46.13;24.05;;;;;;;1.69;87.08;101362.40;1716258;83;21156;-77
2020/12/21 06:37:26;;;;;;;51.15;28.83;;;;;;;1.70;87.08;101368.02;1732323;81;21131;-77
2020/12/21 06:40:01;;;;;;;55.95;28.15;;;;;;;1.70;87.10;101365.38;1722457;83;21159;-77
2020/12/21 06:42:28;;;;;;;57.27;28.60;;;;;;;1.66;87.12;101363.86;1722418;83;22070;-78
2020/12/21 06:44:55;;;;;;;65.40;29.40;;;;;;;1.67;87.11;101365.56;1725255;83;21516;-77
2020/12/21 06:47:27;;;;;;;54.88;26.60;;;;;;;1.64;87.12;101363.13;1727441;81;21160;-77
2020/12/21 06:49:53;;;;;;;51.45;27.20;;;;;;;1.65;87.11;101366.14;1696741;84;21136;-77
2020/12/21 06:52:20;;;;;;;47.75;24.00;;;;;;;1.65;87.12;101368.77;1728665;82;21124;-77
2020/12/21 06:54:50;;;;;;;51.95;28.60;;;;;;;1.67;87.12;101374.77;1750401;81;21257;-77
2020/12/21 06:57:17;;;;;;;58.15;27.37;;;;;;;1.70;87.11;101371.95;1739458;81;21553;-77
2020/12/21 06:59:43;;;;;;;79.20;38.00;;;;;;;1.72;87.12;101383.25;1722550;83;21612;-78
2020/12/21 07:02:10;;;;;;;97.67;44.13;;;;;;;1.72;87.14;101384.09;1722479;83;21163;-77
2020/12/21 07:04:36;;;;;;;88.45;39.88;;;;;;;1.70;87.14;101384.64;1722624;83;21140;-77
2020/12/21 07:07:05;;;;;;;100.95;43.83;;;;;;;1.70;87.16;101387.73;1722556;83;21588;-77
2020/12/21 07:09:37;;;;;;;101.45;44.90;;;;;;;1.72;87.21;101391.14;1722364;82;21194;-77
2020/12/21 07:12:07;;;;;;;57.17;28.73;;;;;;;1.77;87.23;101391.70;1722527;82;21179;-77
2020/12/21 07:14:40;;;;;;;59.10;28.92;;;;;;;1.75;87.24;101385.69;1722486;83;21175;-77
2020/12/21 07:17:16;;;;;;;63.02;30.45;;;;;;;1.72;87.23;101389.82;1722580;83;21120;-77
2020/12/21 07:19:43;;;;;;;48.13;24.80;;;;;;;1.71;87.24;101391.59;1722684;81;21198;-77
2020/12/21 07:22:11;;;;;;;57.98;31.12;;;;;;;1.74;87.26;101389.25;1722648;83;21159;-77
2020/12/21 07:24:40;;;;;;;49.45;25.57;;;;;;;1.73;87.27;101391.48;1722450;83;21243;-77
2020/12/21 07:27:07;;;;;;;48.58;24.50;;;;;;;1.68;87.28;101389.62;1721862;82;21156;-77
2020/12/21 07:29:38;;;;;;;53.45;25.55;;;;;;;1.67;87.29;101393.17;1734336;81;21123;-77
2020/12/21 07:32:05;;;;;;;68.83;28.80;;;;;;;1.67;87.27;101393.17;1752354;81;21197;-77
2020/12/21 07:34:31;;;;;;;73.67;29.27;;;;;;;1.71;87.25;101394.69;1752332;80;21247;-78
2020/12/21 07:36:57;;;;;;;73.65;31.45;;;;;;;1.70;87.25;101396.94;1752364;80;21179;-78
2020/12/21 07:39:24;;;;;;;61.65;29.20;;;;;;;1.72;87.24;101395.93;1752249;81;21195;-77
2020/12/21 07:41:52;;;;;;;73.62;35.92;;;;;;;1.78;87.24;101401.28;1752457;81;21159;-78
2020/12/21 07:44:28;;;;;;;81.00;41.18;;;;;;;1.81;87.25;101401.10;1756400;80;21136;-78
2020/12/21 07:47:02;;;;;;;54.80;28.57;;;;;;;1.83;87.25;101404.51;1751989;81;21171;-77
2020/12/21 07:49:34;;;;;;;46.18;25.70;;;;;;;1.88;87.26;101403.75;1728179;83;21149;-77
2020/12/21 07:52:03;;;;;;;49.30;26.02;;;;;;;1.89;87.29;101405.45;1727622;81;21258;-78
2020/12/21 07:54:38;;;;;;;47.48;26.17;;;;;;;1.91;87.29;101386.47;1728022;82;21547;-78
2020/12/21 07:57:06;;;;;;;45.38;26.70;;;;;;;1.93;87.31;101400.40;1726739;81;21580;-77
2020/12/21 07:59:32;;;;;;;41.83;23.45;;;;;;;1.94;87.27;101397.66;1730421;81;21617;-77
2020/12/21 08:02:02;;;;;;;38.05;21.20;;;;;;;1.95;87.28;101398.05;1730358;81;21549;-78
2020/12/21 08:04:28;;;;;;;44.30;21.62;;;;;;;1.98;87.27;101400.95;1728468;81;21152;-78
2020/12/21 08:07:12;;;;;;;66.40;30.50;;;;;;;2.01;87.26;101406.03;1749029;81;21139;-77
2020/12/21 08:09:39;;;;;;;94.80;38.60;;;;;;;2.04;87.24;101408.51;1731211;81;21273;-78
2020/12/21 08:12:12;;;;;;;79.20;31.35;;;;;;;2.06;87.25;101396.09;1730741;81;21143;-78
2020/12/21 08:14:38;;;;;;;44.18;22.55;;;;;;;2.13;87.23;101398.73;1725999;82;21188;-78
2020/12/21 08:17:16;;;;;;;43.38;22.98;;;;;;;2.20;87.24;101402.70;1739467;82;21181;-78
2020/12/21 08:19:58;;;;;;;72.35;32.65;;;;;;;2.25;87.24;101412.45;1719228;82;21164;-78
2020/12/21 08:22:26;;;;;;;79.03;35.03;;;;;;;2.27;87.26;101413.70;1718262;82;22063;-77
2020/12/21 08:25:06;;;;;;;66.53;35.60;;;;;;;2.29;87.24;101404.77;1719868;82;21175;-77
2020/12/21 08:27:31;;;;;;;53.30;27.27;;;;;;;2.32;87.27;101408.52;1717798;81;21193;-78
2020/12/21 08:30:15;;;;;;;43.35;25.95;;;;;;;2.28;87.27;101413.62;1720326;82;21171;-77
2020/12/21 08:32:41;;;;;;;47.75;25.72;;;;;;;2.29;87.27;101407.86;1736099;81;21644;-78
2020/12/21 08:35:08;;;;;;;43.30;26.35;;;;;;;2.30;87.28;101411.73;1737654;82;21739;-77
2020/12/21 08:37:35;;;;;;;82.97;48.68;;;;;;;2.32;87.26;101415.09;1730600;82;21164;-78
2020/12/21 08:40:12;;;;;;;82.12;45.28;;;;;;;2.34;87.25;101418.50;1731063;82;21612;-78
2020/12/21 08:42:38;;;;;;;51.13;26.40;;;;;;;2.37;87.26;101414.37;1722502;81;21120;-77
2020/12/21 08:45:06;;;;;;;30.15;17.05;;;;;;;2.43;87.28;101411.35;1727889;82;21191;-78
2020/12/21 08:47:32;;;;;;;33.58;17.75;;;;;;;2.47;87.29;101410.70;1723182;82;21275;-78
2020/12/21 08:49:59;;;;;;;35.00;19.60;;;;;;;2.51;87.29;101411.75;1733779;82;21189;-78
2020/12/21 08:52:25;;;;;;;34.88;20.05;;;;;;;2.57;87.29;101415.77;1725742;82;21216;-78
2020/12/21 08:54:51;;;;;;;39.50;22.60;;;;;;;2.61;87.28;101413.33;1725760;82;21262;-78
2020/12/21 08:57:17;;;;;;;46.70;26.35;;;;;;;2.66;87.28;101415.69;1726700;82;21210;-78
2020/12/21 08:59:44;;;;;;;36.77;21.97;;;;;;;2.74;87.29;101410.81;1745275;82;21204;-78
2020/12/21 09:02:10;;;;;;;47.85;25.17;;;;;;;2.82;87.26;101412.47;1747406;82;21235;-77
2020/12/21 09:04:37;;;;;;;44.15;23.98;;;;;;;2.88;87.26;101417.38;1719266;83;21159;-77
2020/12/21 09:07:03;;;;;;;35.50;21.60;;;;;;;2.92;87.27;101421.52;1738377;82;21159;-77
2020/12/21 09:09:31;;;;;;;42.78;22.77;;;;;;;2.93;87.27;101428.45;1721855;82;21189;-77
2020/12/21 09:11:57;;;;;;;36.33;19.85;;;;;;;2.96;87.27;101426.94;1742262;82;21633;-77
2020/12/21 09:14:27;;;;;;;75.40;33.65;;;;;;;2.95;87.28;101423.96;1743136;82;21271;-77
2020/12/21 09:16:54;;;;;;;117.28;54.27;;;;;;;2.97;87.25;101427.33;1726752;82;21183;-77
2020/12/21 09:19:20;;;;;;;66.47;39.00;;;;;;;3.01;87.27;101428.83;1720112;82;21164;-77
2020/12/21 09:21:46;;;;;;;65.62;40.30;;;;;;;3.03;87.25;101426.94;1720107;82;21159;-77
2020/12/21 09:24:12;;;;;;;51.45;29.37;;;;;;;3.05;87.25;101429.02;1720546;82;22083;-77
2020/12/21 09:26:39;;;;;;;65.87;32.23;;;;;;;3.13;87.21;101425.41;1720057;82;21606;-77
2020/12/21 09:29:05;;;;;;;121.42;50.90;;;;;;;3.21;87.21;101428.88;1719828;82;21153;-77
2020/12/21 09:31:31;;;;;;;397.70;162.40;;;;;;;3.24;87.16;101425.58;1720442;82;21232;-76
2020/12/21 09:33:58;;;;;;;306.65;119.20;;;;;;;3.26;87.18;101421.07;1720838;81;21172;-76
2020/12/21 09:36:27;;;;;;;190.25;69.87;;;;;;;3.27;87.16;101428.02;1747966;82;21202;-77
2020/12/21 09:38:53;;;;;;;98.70;36.75;;;;;;;3.31;87.16;101430.83;1745012;82;21179;-77
2020/12/21 09:41:20;;;;;;;81.02;34.58;;;;;;;3.31;87.13;101437.42;1737402;82;21272;-77
2020/12/21 09:43:49;;;;;;;87.42;36.17;;;;;;;3.32;87.13;101436.48;1722675;82;21128;-77
2020/12/21 09:46:23;;;;;;;64.20;28.42;;;;;;;3.41;87.11;101437.70;1725782;82;21148;-76
2020/12/21 09:48:51;;;;;;;58.40;28.50;;;;;;;3.43;87.09;101441.92;1723052;82;21712;-78
2020/12/21 09:51:17;;;;;;;53.33;25.60;;;;;;;3.49;87.07;101444.16;1725242;82;21157;-76
2020/12/21 09:53:44;;;;;;;85.85;38.20;;;;;;;3.56;87.06;101436.69;1738769;82;21211;-76
2020/12/21 09:56:11;;;;;;;57.70;29.42;;;;;;;3.61;87.06;101436.40;1735876;82;21650;-76
2020/12/21 09:58:37;;;;;;;66.75;31.70;;;;;;;3.66;87.04;101432.50;1750909;82;21553;-76
2020/12/21 10:01:04;;;;;;;69.62;32.33;;;;;;;3.69;87.04;101430.16;1751003;81;21590;-76
2020/12/21 10:03:31;;;;;;;38.10;22.30;;;;;;;3.70;87.03;101434.46;1749986;81;21207;-77
2020/12/21 10:05:57;;;;;;;38.53;22.40;;;;;;;3.72;87.02;101428.63;1750799;82;21620;-77
2020/12/21 10:08:23;;;;;;;26.40;15.03;;;;;;;3.74;86.98;101431.53;1750198;82;21209;-77
2020/12/21 10:10:50;;;;;;;30.12;17.02;;;;;;;3.74;86.93;101429.36;1750899;82;21160;-77
2020/12/21 10:13:16;;;;;;;39.50;19.32;;;;;;;3.76;86.93;101423.53;1750934;82;21208;-77
2020/12/21 10:15:42;;;;;;;30.08;15.80;;;;;;;3.80;86.92;101431.12;1750991;82;21171;-77
2020/12/21 10:18:08;;;;;;;25.65;14.28;;;;;;;3.86;86.90;101428.56;1750994;82;21156;-77
2020/12/21 10:20:35;;;;;;;21.42;13.20;;;;;;;3.91;86.90;101430.41;1750946;81;21152;-77
2020/12/21 10:23:01;;;;;;;18.02;12.82;;;;;;;3.94;86.89;101415.72;1750993;82;21156;-77
2020/12/21 10:25:27;;;;;;;19.42;12.20;;;;;;;3.99;86.84;101416.23;1750766;82;21203;-77
2020/12/21 10:27:53;;;;;;;21.55;13.28;;;;;;;4.03;86.83;101424.33;1750736;81;21216;-76
2020/12/21 10:30:20;;;;;;;28.42;16.12;;;;;;;4.06;86.82;101425.44;1725120;82;21160;-77
2020/12/21 10:32:46;;;;;;;22.75;14.35;;;;;;;4.07;86.78;101421.86;1750901;82;21109;-77
2020/12/21 10:35:12;;;;;;;29.30;17.82;;;;;;;4.07;86.77;101411.30;1750938;82;21565;-77
2020/12/21 10:37:38;;;;;;;29.07;18.73;;;;;;;4.07;86.74;101419.22;1750879;82;21202;-77
2020/12/21 10:40:05;;;;;;;35.78;18.82;;;;;;;4.05;86.72;101412.36;1751040;82;21164;-77
2020/12/21 10:42:32;;;;;;;26.42;16.80;;;;;;;4.05;86.70;101415.81;1750820;81;21155;-77
2020/12/21 10:44:58;;;;;;;23.05;14.43;;;;;;;4.09;86.68;101413.81;1745520;82;21183;-77
2020/12/21 10:47:24;;;;;;;23.73;14.28;;;;;;;4.10;86.64;101404.48;1740566;82;21151;-76
2020/12/21 10:49:51;;;;;;;24.98;14.87;;;;;;;4.12;86.59;101410.50;1740607;81;22000;-76
2020/12/21 10:52:17;;;;;;;26.02;14.18;;;;;;;4.17;86.58;101413.68;1740349;82;21124;-77
2020/12/21 10:54:43;;;;;;;28.15;15.05;;;;;;;4.21;86.54;101411.20;1740375;82;21192;-76
2020/12/21 10:57:09;;;;;;;25.43;14.60;;;;;;;4.27;86.51;101412.57;1740524;82;21160;-76
2020/12/21 10:59:35;;;;;;;26.85;14.38;;;;;;;4.30;86.48;101407.08;1740560;82;21143;-76
2020/12/21 11:02:02;;;;;;;56.65;37.10;;;;;;;4.32;86.46;101406.05;1740614;82;22595;-77
2020/12/21 11:04:28;;;;;;;21.85;13.40;;;;;;;4.33;86.46;101402.43;1740355;81;21112;-77
2020/12/21 11:06:55;;;;;;;25.08;16.48;;;;;;;4.36;86.44;101400.89;1740608;82;21180;-76
2020/12/21 11:09:22;;;;;;;30.27;15.05;;;;;;;4.39;86.41;101391.47;1740542;82;21167;-76
2020/12/21 11:11:50;;;;;;;32.78;19.45;;;;;;;4.48;86.41;101389.97;1740253;82;21223;-76
2020/12/21 11:14:17;;;;;;;27.93;17.70;;;;;;;4.51;86.36;101390.59;1740560;82;21269;-77
2020/12/21 11:16:51;;;;;;;34.25;17.90;;;;;;;4.58;86.34;101398.09;1740498;82;21209;-77